Time,TemperatureF,DewpointF,PressureIn,WindDirection,WindDirectionDegrees,WindSpeedMPH,WindSpeedGustMPH,Humidity,HourlyPrecipIn,Conditions,Clouds,dailyrainin,SoftwareType,DateUTC
2013-02-28 00:10:00,42.6,42.0,30.25,SW,224,0.0,0.0,99,0.00,,,0.00,weatherlink.com 1.10,2013-02-28 08:10:00,
2013-02-28 00:25:00,42.7,43.0,30.24,NE,36,1.0,3.0,99,0.00,,,0.00,weatherlink.com 1.10,2013-02-28 08:25:00,
2013-02-28 00:40:00,42.7,43.0,30.24,WNW,293,0.0,1.0,99,0.00,,,0.00,weatherlink.com 1.10,2013-02-28 08:40:00,
2013-02-28 00:55:00,42.7,43.0,30.23,WNW,294,0.0,0.0,99,0.00,,,0.00,weatherlink.com 1.10,2013-02-28 08:55:00,
2013-02-28 01:10:00,42.6,42.0,30.23,WNW,292,0.0,1.0,99,0.01,,,0.01,weatherlink.com 1.10,2013-02-28 09:10:00,
2013-02-28 01:25:00,42.5,42.0,30.23,WNW,293,0.0,0.0,99,0.01,,,0.01,weatherlink.com 1.10,2013-02-28 09:25:00,
2013-02-28 01:40:00,42.4,42.0,30.23,WNW,292,0.0,0.0,99,0.01,,,0.01,weatherlink.com 1.10,2013-02-28 09:40:00,
2013-02-28 01:55:00,42.3,42.0,30.23,WNW,293,0.0,0.0,99,0.02,,,0.02,weatherlink.com 1.10,2013-02-28 09:55:00,
2013-02-28 02:10:00,42.3,42.0,30.22,WNW,293,0.0,1.0,99,0.02,,,0.03,weatherlink.com 1.10,2013-02-28 10:10:00,
2013-02-28 02:25:00,42.3,42.0,30.22,WNW,293,0.0,0.0,99,0.03,,,0.04,weatherlink.com 1.10,2013-02-28 10:25:00,
2013-02-28 02:40:00,42.3,42.0,30.22,WNW,293,0.0,1.0,99,0.04,,,0.05,weatherlink.com 1.10,2013-02-28 10:40:00,
2013-02-28 02:55:00,42.2,42.0,30.21,WNW,293,0.0,0.0,99,0.03,,,0.05,weatherlink.com 1.10,2013-02-28 10:55:00,
2013-02-28 03:10:00,42.1,42.0,30.21,WNW,293,0.0,0.0,99,0.02,,,0.06,weatherlink.com 1.10,2013-02-28 11:10:00,
2013-02-28 03:25:00,42.1,42.0,30.21,WNW,293,0.0,0.0,99,0.04,,,0.08,weatherlink.com 1.10,2013-02-28 11:25:00,
2013-02-28 03:40:00,42.1,42.0,30.21,WNW,293,0.0,0.0,99,0.05,,,0.10,weatherlink.com 1.10,2013-02-28 11:40:00,
2013-02-28 03:55:00,42.2,42.0,30.21,WNW,293,0.0,0.0,99,0.06,,,0.11,weatherlink.com 1.10,2013-02-28 11:55:00,
2013-02-28 04:10:00,42.1,42.0,30.20,WNW,293,0.0,1.0,99,0.06,,,0.13,weatherlink.com 1.10,2013-02-28 12:10:00,
2013-02-28 04:25:00,42.1,42.0,30.20,WNW,293,0.0,0.0,99,0.07,,,0.15,weatherlink.com 1.10,2013-02-28 12:25:00,
2013-02-28 04:40:00,42.1,42.0,30.20,SW,219,0.0,0.0,99,0.06,,,0.16,weatherlink.com 1.10,2013-02-28 12:40:00,
2013-02-28 04:55:00,42.1,42.0,30.20,SW,221,0.0,0.0,99,0.06,,,0.17,weatherlink.com 1.10,2013-02-28 12:55:00,
2013-02-28 05:10:00,42.1,42.0,30.20,SW,221,0.0,0.0,99,0.05,,,0.18,weatherlink.com 1.10,2013-02-28 13:10:00,
2013-02-28 05:25:00,42.0,42.0,30.20,SW,221,0.0,1.0,99,0.03,,,0.18,weatherlink.com 1.10,2013-02-28 13:25:00,
2013-02-28 05:41:00,41.9,42.0,30.19,SW,221,0.0,1.0,99,0.02,,,0.18,weatherlink.com 1.10,2013-02-28 13:41:00,
2013-02-28 05:56:00,41.9,42.0,30.19,SW,221,0.0,0.0,99,0.01,,,0.18,weatherlink.com 1.10,2013-02-28 13:56:00,
2013-02-28 06:11:00,41.9,42.0,30.19,SW,221,1.0,1.0,99,0.00,,,0.18,weatherlink.com 1.10,2013-02-28 14:11:00,
2013-02-28 06:26:00,41.9,42.0,30.19,NW,320,0.0,0.0,99,0.00,,,0.18,weatherlink.com 1.10,2013-02-28 14:26:00,
2013-02-28 06:41:00,41.8,42.0,30.19,NW,321,0.0,0.0,99,0.00,,,0.18,weatherlink.com 1.10,2013-02-28 14:41:00,
2013-02-28 06:56:00,41.7,42.0,30.18,NW,321,0.0,0.0,99,0.01,,,0.19,weatherlink.com 1.10,2013-02-28 14:56:00,
2013-02-28 07:11:00,41.7,42.0,30.17,NW,321,0.0,1.0,99,0.01,,,0.19,weatherlink.com 1.10,2013-02-28 15:11:00,
2013-02-28 07:26:00,41.7,42.0,30.17,NW,321,0.0,0.0,99,0.01,,,0.19,weatherlink.com 1.10,2013-02-28 15:26:00,
2013-02-28 07:41:00,41.9,42.0,30.17,North,5,0.0,1.0,99,0.01,,,0.19,weatherlink.com 1.10,2013-02-28 15:41:00,
2013-02-28 07:56:00,42.0,42.0,30.17,SE,131,0.0,1.0,99,0.01,,,0.20,weatherlink.com 1.10,2013-02-28 15:56:00,
2013-02-28 08:11:00,42.3,42.0,30.17,East,86,1.0,2.0,99,0.01,,,0.20,weatherlink.com 1.10,2013-02-28 16:11:00,
2013-02-28 08:26:00,42.4,42.0,30.17,East,86,0.0,1.0,99,0.02,,,0.21,weatherlink.com 1.10,2013-02-28 16:26:00,
2013-02-28 08:41:00,42.5,42.0,30.17,East,100,0.0,1.0,99,0.03,,,0.22,weatherlink.com 1.10,2013-02-28 16:41:00,
2013-02-28 08:56:00,42.8,42.0,30.17,SE,124,0.0,2.0,98,0.02,,,0.22,weatherlink.com 1.10,2013-02-28 16:56:00,
2013-02-28 09:11:00,43.0,43.0,30.17,SE,126,1.0,1.0,98,0.02,,,0.22,weatherlink.com 1.10,2013-02-28 17:11:00,
2013-02-28 09:26:00,43.3,43.0,30.17,SW,218,2.0,3.0,98,0.01,,,0.22,weatherlink.com 1.10,2013-02-28 17:26:00,
2013-02-28 09:41:00,43.7,43.0,30.17,SSE,167,2.0,4.0,98,0.00,,,0.22,weatherlink.com 1.10,2013-02-28 17:41:00,
2013-02-28 09:56:00,43.8,43.0,30.18,SSE,167,4.0,6.0,98,0.00,,,0.22,weatherlink.com 1.10,2013-02-28 17:56:00,
2013-02-28 10:11:00,43.8,43.0,30.18,SSE,155,4.0,7.0,97,0.01,,,0.23,weatherlink.com 1.10,2013-02-28 18:11:00,
2013-02-28 10:26:00,43.9,43.0,30.18,ESE,120,3.0,10.0,97,0.01,,,0.23,weatherlink.com 1.10,2013-02-28 18:26:00,
2013-02-28 10:41:00,44.1,43.0,30.17,SE,131,5.0,7.0,97,0.01,,,0.23,weatherlink.com 1.10,2013-02-28 18:41:00,
2013-02-28 10:56:00,44.3,44.0,30.18,SSE,155,5.0,9.0,97,0.01,,,0.23,weatherlink.com 1.10,2013-02-28 18:56:00,
2013-02-28 11:11:00,44.6,44.0,30.17,SSE,158,8.0,10.0,98,0.00,,,0.23,weatherlink.com 1.10,2013-02-28 19:11:00,
2013-02-28 11:26:00,44.8,44.0,30.17,SSE,148,8.0,12.0,97,0.00,,,0.23,weatherlink.com 1.10,2013-02-28 19:26:00,
2013-02-28 11:41:00,45.1,45.0,30.18,SE,141,6.0,11.0,98,0.00,,,0.23,weatherlink.com 1.10,2013-02-28 19:41:00,
2013-02-28 11:56:00,45.6,45.0,30.18,SE,146,9.0,15.0,97,0.00,,,0.23,weatherlink.com 1.10,2013-02-28 19:56:00,
2013-02-28 12:11:00,46.3,46.0,30.17,South,170,7.0,16.0,97,0.00,,,0.23,weatherlink.com 1.10,2013-02-28 20:11:00,
2013-02-28 12:26:00,47.0,46.0,30.18,South,170,11.0,16.0,96,0.00,,,0.23,weatherlink.com 1.10,2013-02-28 20:26:00,
2013-02-28 12:41:00,47.8,47.0,30.16,SSE,159,13.0,23.0,96,0.00,,,0.23,weatherlink.com 1.10,2013-02-28 20:41:00,
2013-02-28 12:56:00,48.5,47.0,30.16,SSE,164,12.0,19.0,95,0.00,,,0.23,weatherlink.com 1.10,2013-02-28 20:56:00,
2013-02-28 13:11:00,49.4,48.0,30.17,SE,145,7.0,15.0,94,0.00,,,0.23,weatherlink.com 1.10,2013-02-28 21:11:00,
2013-02-28 13:26:00,50.0,48.0,30.17,SSE,155,9.0,18.0,93,0.00,,,0.23,weatherlink.com 1.10,2013-02-28 21:26:00,
2013-02-28 13:41:00,50.6,48.0,30.18,South,183,9.0,20.0,92,0.00,,,0.23,weatherlink.com 1.10,2013-02-28 21:41:00,
2013-02-28 13:56:00,51.0,49.0,30.18,SSE,155,9.0,20.0,92,0.00,,,0.23,weatherlink.com 1.10,2013-02-28 21:56:00,
2013-02-28 14:12:00,51.0,49.0,30.19,South,174,7.0,19.0,92,0.00,,,0.23,weatherlink.com 1.10,2013-02-28 22:12:00,
2013-02-28 14:27:00,51.0,49.0,30.19,SSE,160,6.0,14.0,92,0.00,,,0.23,weatherlink.com 1.10,2013-02-28 22:27:00,
2013-02-28 14:42:00,51.0,49.0,30.20,ESE,103,10.0,13.0,91,0.00,,,0.23,weatherlink.com 1.10,2013-02-28 22:42:00,
2013-02-28 14:57:00,51.1,49.0,30.20,SE,135,7.0,7.0,92,0.00,,,0.23,weatherlink.com 1.10,2013-02-28 22:57:00,
2013-02-28 15:12:00,51.3,49.0,30.21,SSE,152,6.0,9.0,91,0.00,,,0.23,weatherlink.com 1.10,2013-02-28 23:12:00,
2013-02-28 15:27:00,51.5,49.0,30.20,SSE,154,7.0,11.0,91,0.00,,,0.23,weatherlink.com 1.10,2013-02-28 23:27:00,
2013-02-28 15:42:00,51.8,49.0,30.21,SSW,195,5.0,11.0,91,0.00,,,0.23,weatherlink.com 1.10,2013-02-28 23:42:00,
2013-02-28 15:57:00,52.2,49.0,30.21,South,170,9.0,16.0,90,0.00,,,0.23,weatherlink.com 1.10,2013-02-28 23:57:00,
2013-02-28 16:12:00,52.2,49.0,30.21,SSE,165,10.0,15.0,90,0.00,,,0.23,weatherlink.com 1.10,2013-03-01 00:12:00,
2013-02-28 16:27:00,52.1,50.0,30.21,SSE,167,8.0,15.0,91,0.00,,,0.23,weatherlink.com 1.10,2013-03-01 00:27:00,
2013-02-28 16:42:00,52.0,50.0,30.20,SSW,203,2.0,16.0,91,0.00,,,0.23,weatherlink.com 1.10,2013-03-01 00:42:00,
2013-02-28 16:57:00,52.0,49.0,30.20,South,184,11.0,21.0,90,0.00,,,0.23,weatherlink.com 1.10,2013-03-01 00:57:00,
2013-02-28 17:12:00,51.9,49.0,30.21,SW,225,2.0,19.0,90,0.00,,,0.23,weatherlink.com 1.10,2013-03-01 01:12:00,
2013-02-28 17:27:00,51.7,49.0,30.20,SSE,166,15.0,22.0,91,0.00,,,0.23,weatherlink.com 1.10,2013-03-01 01:27:00,
2013-02-28 17:42:00,51.5,49.0,30.21,South,188,2.0,21.0,91,0.00,,,0.23,weatherlink.com 1.10,2013-03-01 01:42:00,
2013-02-28 17:57:00,51.2,49.0,30.22,SSE,162,4.0,11.0,92,0.00,,,0.23,weatherlink.com 1.10,2013-03-01 01:57:00,
2013-02-28 18:12:00,51.0,49.0,30.21,South,191,6.0,19.0,92,0.00,,,0.23,weatherlink.com 1.10,2013-03-01 02:12:00,
2013-02-28 18:27:00,51.0,49.0,30.22,SSW,205,14.0,16.0,92,0.00,,,0.23,weatherlink.com 1.10,2013-03-01 02:27:00,
2013-02-28 18:42:00,50.9,49.0,30.22,SSE,155,6.0,13.0,93,0.00,,,0.23,weatherlink.com 1.10,2013-03-01 02:42:00,
2013-02-28 18:57:00,51.0,49.0,30.22,SE,145,9.0,15.0,92,0.00,,,0.23,weatherlink.com 1.10,2013-03-01 02:57:00,
2013-02-28 19:12:00,51.0,49.0,30.22,WSW,238,7.0,20.0,93,0.00,,,0.23,weatherlink.com 1.10,2013-03-01 03:12:00,
2013-02-28 19:27:00,51.0,49.0,30.23,SSE,160,11.0,14.0,92,0.00,,,0.23,weatherlink.com 1.10,2013-03-01 03:27:00,
2013-02-28 19:42:00,51.2,49.0,30.23,SSE,155,8.0,14.0,92,0.00,,,0.23,weatherlink.com 1.10,2013-03-01 03:42:00,
2013-02-28 19:57:00,51.1,49.0,30.23,SSE,160,8.0,15.0,92,0.00,,,0.23,weatherlink.com 1.10,2013-03-01 03:57:00,
2013-02-28 20:12:00,51.0,49.0,30.23,SSE,160,7.0,12.0,92,0.00,,,0.23,weatherlink.com 1.10,2013-03-01 04:12:00,
2013-02-28 20:27:00,51.1,49.0,30.23,SSE,159,10.0,13.0,92,0.00,,,0.23,weatherlink.com 1.10,2013-03-01 04:27:00,
2013-02-28 20:42:00,51.1,49.0,30.23,SSW,201,12.0,15.0,92,0.00,,,0.23,weatherlink.com 1.10,2013-03-01 04:42:00,
2013-02-28 20:57:00,51.0,49.0,30.24,SSE,152,10.0,12.0,93,0.00,,,0.23,weatherlink.com 1.10,2013-03-01 04:57:00,
2013-02-28 21:13:00,51.3,49.0,30.25,South,174,10.0,16.0,92,0.00,,,0.23,weatherlink.com 1.10,2013-03-01 05:13:00,
2013-02-28 21:28:00,51.2,49.0,30.26,South,181,10.0,19.0,92,0.00,,,0.23,weatherlink.com 1.10,2013-03-01 05:28:00,
2013-02-28 21:43:00,51.0,49.0,30.25,SSE,156,10.0,17.0,92,0.00,,,0.23,weatherlink.com 1.10,2013-03-01 05:43:00,
2013-02-28 21:58:00,50.8,49.0,30.26,South,180,7.0,20.0,93,0.00,,,0.23,weatherlink.com 1.10,2013-03-01 05:58:00,
2013-02-28 22:13:00,50.8,49.0,30.27,SW,224,6.0,18.0,93,0.00,,,0.23,weatherlink.com 1.10,2013-03-01 06:13:00,
2013-02-28 22:28:00,50.6,49.0,30.27,South,188,8.0,17.0,94,0.00,,,0.23,weatherlink.com 1.10,2013-03-01 06:28:00,
2013-02-28 22:43:00,50.7,49.0,30.27,South,177,4.0,17.0,94,0.00,,,0.23,weatherlink.com 1.10,2013-03-01 06:43:00,
2013-02-28 22:58:00,50.5,49.0,30.26,SSE,165,9.0,14.0,95,0.00,,,0.23,weatherlink.com 1.10,2013-03-01 06:58:00,
2013-02-28 23:13:00,50.7,49.0,30.28,South,191,7.0,15.0,95,0.00,,,0.23,weatherlink.com 1.10,2013-03-01 07:13:00,
2013-02-28 23:28:00,50.8,50.0,30.27,South,176,8.0,11.0,95,0.00,,,0.23,weatherlink.com 1.10,2013-03-01 07:28:00,
2013-02-28 23:43:00,50.6,50.0,30.28,SSE,164,5.0,11.0,96,0.00,,,0.23,weatherlink.com 1.10,2013-03-01 07:43:00,
2013-02-28 23:58:00,50.5,50.0,30.27,SSE,153,6.0,9.0,97,0.02,,,0.25,weatherlink.com 1.10,2013-03-01 07:58:00,